createdAt,value
2022-09-27T00:00:00.561Z,719.41
2022-09-27T00:00:10.562Z,719.38
2022-09-27T00:00:20.566Z,719.22
2022-09-27T00:00:30.559Z,719.38
2022-09-27T00:00:40.561Z,719.51
2022-09-27T00:00:50.560Z,719.56
2022-09-27T00:01:00.565Z,719.45
2022-09-27T00:01:10.595Z,719.39
2022-09-27T00:01:20.579Z,719.46
2022-09-27T00:01:30.664Z,719.47
2022-09-27T00:01:40.618Z,719.49
2022-09-27T00:01:50.633Z,719.59
2022-09-27T00:02:00.593Z,719.53
2022-09-27T00:02:10.679Z,719.60
2022-09-27T00:02:20.606Z,719.80
2022-09-27T00:02:30.596Z,719.87
2022-09-27T00:02:40.592Z,719.92
2022-09-27T00:02:50.737Z,719.93
2022-09-27T00:03:00.620Z,720.01
2022-09-27T00:03:10.687Z,719.97
2022-09-27T00:03:20.575Z,719.94
2022-09-27T00:03:30.578Z,719.86
2022-09-27T00:03:40.576Z,719.93
2022-09-27T00:03:50.575Z,719.93
2022-09-27T00:04:00.575Z,719.86
2022-09-27T00:04:10.576Z,720.08
2022-09-27T00:04:20.576Z,720.25
2022-09-27T00:04:30.580Z,720.15
2022-09-27T00:04:40.579Z,720.18
2022-09-27T00:04:50.578Z,719.87
2022-09-27T00:05:00.582Z,719.83
2022-09-27T00:05:10.581Z,719.98
2022-09-27T00:05:20.583Z,720.17
2022-09-27T00:05:30.584Z,720.16
2022-09-27T00:05:40.594Z,720.27
2022-09-27T00:05:50.582Z,720.20
2022-09-27T00:06:00.586Z,720.31
2022-09-27T00:06:10.582Z,720.22
2022-09-27T00:06:20.585Z,720.13
2022-09-27T00:06:30.590Z,719.88
2022-09-27T00:06:41.144Z,720.32
2022-09-27T00:06:50.585Z,720.44
2022-09-27T00:07:00.587Z,720.51
2022-09-27T00:07:10.589Z,720.26
2022-09-27T00:07:20.589Z,720.29
2022-09-27T00:07:30.591Z,720.27
2022-09-27T00:07:40.591Z,720.22
2022-09-27T00:07:50.593Z,720.33
2022-09-27T00:08:00.595Z,720.14
2022-09-27T00:08:10.597Z,720.42
2022-09-27T00:08:20.590Z,720.62
2022-09-27T00:08:30.594Z,720.64
2022-09-27T00:08:40.597Z,720.48
2022-09-27T00:08:50.597Z,720.47
2022-09-27T00:09:00.593Z,720.29
2022-09-27T00:09:10.639Z,720.27
2022-09-27T00:09:20.599Z,720.43
2022-09-27T00:09:30.600Z,720.36
2022-09-27T00:09:40.603Z,720.34
2022-09-27T00:09:50.598Z,720.53
2022-09-27T00:10:00.606Z,720.42
2022-09-27T00:10:10.610Z,720.57
2022-09-27T00:10:20.621Z,720.48
2022-09-27T00:10:30.601Z,720.40
2022-09-27T00:10:40.606Z,720.26
2022-09-27T00:10:50.604Z,720.35
2022-09-27T00:11:00.610Z,720.23
2022-09-27T00:11:10.610Z,720.15
2022-09-27T00:11:20.607Z,720.48
2022-09-27T00:11:30.611Z,720.36
2022-09-27T00:11:40.613Z,720.48
2022-09-27T00:11:50.610Z,720.35
2022-09-27T00:12:00.610Z,720.37
2022-09-27T00:12:10.619Z,720.49
2022-09-27T00:12:20.611Z,720.62
2022-09-27T00:12:30.613Z,720.48
2022-09-27T00:12:40.611Z,720.57
2022-09-27T00:12:50.614Z,720.48
2022-09-27T00:13:00.617Z,720.74
2022-09-27T00:13:10.623Z,720.92
2022-09-27T00:13:20.615Z,720.98
2022-09-27T00:13:30.616Z,720.94
2022-09-27T00:13:40.619Z,720.93
2022-09-27T00:13:50.618Z,720.72
2022-09-27T00:14:00.648Z,720.89
2022-09-27T00:14:10.628Z,721.00
2022-09-27T00:14:20.622Z,721.10
2022-09-27T00:14:30.608Z,720.98
2022-09-27T00:14:40.624Z,720.99
2022-09-27T00:14:50.623Z,721.26
2022-09-27T00:15:00.623Z,721.17
2022-09-27T00:15:10.625Z,721.17
2022-09-27T00:15:20.625Z,721.20
2022-09-27T00:15:30.626Z,721.35
2022-09-27T00:15:40.655Z,721.11
2022-09-27T00:15:50.673Z,721.37
2022-09-27T00:16:00.708Z,721.33
2022-09-27T00:16:10.721Z,721.32
2022-09-27T00:16:20.659Z,721.12
2022-09-27T00:16:30.728Z,721.18
2022-09-27T00:16:40.632Z,721.18
2022-09-27T00:16:50.631Z,721.25
2022-09-27T00:17:00.634Z,721.32
2022-09-27T00:17:10.653Z,721.51
2022-09-27T00:17:20.642Z,721.34
2022-09-27T00:17:30.635Z,721.33
2022-09-27T00:17:40.636Z,721.53
2022-09-27T00:17:50.640Z,721.41
2022-09-27T00:18:00.637Z,721.42
2022-09-27T00:18:10.640Z,721.43
2022-09-27T00:18:20.637Z,721.45
2022-09-27T00:18:30.639Z,721.43
2022-09-27T00:18:40.649Z,721.47
2022-09-27T00:18:50.644Z,721.41
2022-09-27T00:19:00.648Z,721.32
2022-09-27T00:19:10.698Z,721.26
2022-09-27T00:19:20.647Z,721.30
2022-09-27T00:19:30.645Z,721.26
2022-09-27T00:19:40.646Z,721.26
2022-09-27T00:19:50.636Z,721.30
2022-09-27T00:20:00.646Z,721.39
2022-09-27T00:20:10.646Z,721.37
2022-09-27T00:20:20.650Z,721.50
2022-09-27T00:20:30.645Z,721.43
2022-09-27T00:20:40.647Z,721.35
2022-09-27T00:20:50.647Z,721.31
2022-09-27T00:21:00.652Z,721.34
2022-09-27T00:21:10.647Z,721.36
2022-09-27T00:21:20.652Z,721.43
2022-09-27T00:21:30.751Z,721.34
2022-09-27T00:21:40.651Z,721.45
2022-09-27T00:21:50.653Z,721.49
2022-09-27T00:22:00.649Z,721.40
2022-09-27T00:22:10.654Z,721.41
2022-09-27T00:22:20.650Z,721.55
2022-09-27T00:22:30.651Z,721.43
2022-09-27T00:22:40.652Z,721.35
2022-09-27T00:22:50.656Z,721.34
2022-09-27T00:23:00.653Z,721.35
2022-09-27T00:23:10.655Z,721.56
2022-09-27T00:23:20.656Z,721.48
2022-09-27T00:23:30.653Z,721.56
2022-09-27T00:23:40.654Z,721.70
2022-09-27T00:23:50.655Z,721.69
2022-09-27T00:24:00.657Z,721.66
2022-09-27T00:24:10.659Z,721.73
2022-09-27T00:24:20.658Z,721.71
2022-09-27T00:24:30.664Z,721.79
2022-09-27T00:24:40.661Z,721.89
2022-09-27T00:24:50.662Z,721.89
2022-09-27T00:25:00.661Z,722.03
2022-09-27T00:25:10.659Z,722.02
2022-09-27T00:25:20.664Z,722.10
2022-09-27T00:25:30.663Z,722.16
2022-09-27T00:25:40.664Z,722.09
2022-09-27T00:25:50.664Z,722.15
2022-09-27T00:26:00.664Z,722.09
2022-09-27T00:26:10.668Z,722.06
2022-09-27T00:26:20.665Z,722.04
2022-09-27T00:26:30.673Z,722.33
2022-09-27T00:26:40.670Z,722.25
2022-09-27T00:26:50.668Z,722.32
2022-09-27T00:27:00.667Z,722.27
2022-09-27T00:27:10.669Z,722.21
2022-09-27T00:27:20.669Z,722.25
2022-09-27T00:27:30.671Z,722.24
2022-09-27T00:27:40.672Z,722.16
2022-09-27T00:27:50.672Z,722.30
2022-09-27T00:28:00.674Z,722.25
2022-09-27T00:28:10.676Z,722.33
2022-09-27T00:28:20.683Z,722.19
2022-09-27T00:28:30.674Z,722.30
2022-09-27T00:28:40.680Z,722.26
2022-09-27T00:28:50.683Z,722.12
2022-09-27T00:29:00.678Z,722.33
2022-09-27T00:29:10.711Z,722.42
2022-09-27T00:29:20.690Z,722.35
2022-09-27T00:29:30.678Z,722.44
2022-09-27T00:29:40.683Z,722.44
2022-09-27T00:29:50.688Z,722.52
2022-09-27T00:30:00.688Z,722.54
2022-09-27T00:30:10.667Z,722.54
2022-09-27T00:30:20.681Z,722.56
2022-09-27T00:30:30.683Z,722.53
2022-09-27T00:30:40.739Z,722.54
2022-09-27T00:30:51.811Z,722.51
2022-09-27T00:31:00.787Z,722.54
2022-09-27T00:31:10.750Z,722.41
2022-09-27T00:31:20.805Z,722.54
2022-09-27T00:31:30.850Z,722.56
2022-09-27T00:31:40.687Z,722.62
2022-09-27T00:31:50.688Z,722.65
2022-09-27T00:32:00.693Z,722.70
2022-09-27T00:32:10.688Z,722.49
2022-09-27T00:32:20.691Z,722.40
2022-09-27T00:32:30.694Z,722.26
2022-09-27T00:32:40.691Z,722.48
2022-09-27T00:32:50.692Z,722.52
2022-09-27T00:33:00.705Z,722.73
2022-09-27T00:33:10.678Z,722.62
2022-09-27T00:33:20.695Z,722.57
2022-09-27T00:33:30.697Z,722.55
2022-09-27T00:33:40.701Z,722.47
2022-09-27T00:33:50.708Z,722.69
2022-09-27T00:34:00.699Z,722.57
2022-09-27T00:34:10.699Z,722.65
2022-09-27T00:34:20.702Z,722.57
2022-09-27T00:34:30.699Z,722.55
2022-09-27T00:34:40.703Z,722.54
2022-09-27T00:34:50.705Z,722.50
2022-09-27T00:35:00.703Z,722.46
2022-09-27T00:35:10.705Z,722.44
2022-09-27T00:35:20.706Z,722.45
2022-09-27T00:35:30.708Z,722.60
2022-09-27T00:35:40.705Z,722.64
2022-09-27T00:35:50.704Z,722.79
2022-09-27T00:36:00.707Z,722.73
2022-09-27T00:36:10.707Z,722.53
2022-09-27T00:36:20.707Z,722.40
2022-09-27T00:36:30.729Z,722.34
2022-09-27T00:36:40.739Z,722.43
2022-09-27T00:36:50.711Z,722.53
2022-09-27T00:37:00.700Z,722.57
2022-09-27T00:37:10.715Z,722.52
2022-09-27T00:37:20.713Z,722.51
2022-09-27T00:37:30.716Z,722.62
2022-09-27T00:37:40.717Z,722.75
2022-09-27T00:37:50.720Z,722.72
2022-09-27T00:38:00.716Z,722.93
2022-09-27T00:38:10.723Z,722.98
2022-09-27T00:38:20.717Z,722.93
2022-09-27T00:38:30.717Z,723.00
2022-09-27T00:38:40.721Z,723.06
2022-09-27T00:38:50.723Z,723.06
2022-09-27T00:39:00.730Z,723.07
2022-09-27T00:39:10.771Z,723.15
2022-09-27T00:39:20.723Z,723.10
2022-09-27T00:39:30.724Z,723.23
2022-09-27T00:39:40.726Z,723.26
2022-09-27T00:39:50.725Z,723.40
2022-09-27T00:40:00.729Z,723.39
2022-09-27T00:40:10.730Z,723.40
2022-09-27T00:40:20.816Z,723.34
2022-09-27T00:40:30.761Z,723.46
2022-09-27T00:40:40.849Z,723.43
2022-09-27T00:40:50.830Z,723.34
2022-09-27T00:41:00.784Z,723.16
2022-09-27T00:41:10.808Z,723.20
2022-09-27T00:41:20.732Z,723.39
2022-09-27T00:41:30.728Z,723.30
2022-09-27T00:41:40.729Z,723.38
2022-09-27T00:41:50.729Z,723.50
2022-09-27T00:42:00.729Z,723.59
2022-09-27T00:42:10.740Z,723.62
2022-09-27T00:42:20.734Z,723.59
2022-09-27T00:42:30.733Z,723.46
2022-09-27T00:42:40.739Z,723.45
2022-09-27T00:42:50.735Z,723.65
2022-09-27T00:43:00.734Z,723.59
2022-09-27T00:43:10.739Z,723.62
2022-09-27T00:43:20.733Z,723.47
2022-09-27T00:43:30.739Z,723.48
2022-09-27T00:43:40.745Z,723.70
2022-09-27T00:43:50.737Z,723.56
2022-09-27T00:44:00.741Z,723.46
2022-09-27T00:44:10.743Z,723.64
2022-09-27T00:44:20.738Z,723.55
2022-09-27T00:44:30.743Z,723.50
2022-09-27T00:44:40.725Z,723.45
2022-09-27T00:44:50.743Z,723.49
2022-09-27T00:45:00.741Z,723.87
2022-09-27T00:45:10.742Z,723.55
2022-09-27T00:45:20.741Z,723.80
2022-09-27T00:45:30.748Z,723.78
2022-09-27T00:45:40.744Z,723.92
2022-09-27T00:45:50.798Z,724.03
2022-09-27T00:46:00.789Z,723.78
2022-09-27T00:46:10.824Z,723.83
2022-09-27T00:46:20.829Z,723.76
2022-09-27T00:46:30.812Z,723.93
2022-09-27T00:46:40.859Z,723.94
2022-09-27T00:46:50.755Z,723.94
2022-09-27T00:47:00.749Z,723.92
2022-09-27T00:47:10.750Z,724.04
2022-09-27T00:47:20.750Z,724.05
2022-09-27T00:47:30.753Z,724.15
2022-09-27T00:47:40.750Z,724.25
2022-09-27T00:47:50.753Z,724.21
2022-09-27T00:48:00.754Z,724.08
2022-09-27T00:48:10.754Z,724.11
2022-09-27T00:48:20.758Z,724.15
2022-09-27T00:48:30.755Z,724.21
2022-09-27T00:48:40.756Z,724.14
2022-09-27T00:48:50.757Z,723.96
2022-09-27T00:49:00.766Z,723.77
2022-09-27T00:49:10.805Z,724.17
2022-09-27T00:49:20.765Z,724.02
2022-09-27T00:49:30.767Z,724.34
2022-09-27T00:49:40.764Z,724.23
2022-09-27T00:49:50.765Z,724.19
2022-09-27T00:50:00.765Z,724.23
2022-09-27T00:50:10.763Z,724.32
2022-09-27T00:50:20.767Z,724.36
2022-09-27T00:50:30.769Z,724.37
2022-09-27T00:50:40.765Z,724.45
2022-09-27T00:50:50.770Z,724.47
2022-09-27T00:51:00.767Z,724.60
2022-09-27T00:51:10.769Z,724.54
2022-09-27T00:51:20.770Z,724.56
2022-09-27T00:51:30.771Z,724.52
2022-09-27T00:51:40.786Z,724.54
2022-09-27T00:51:50.770Z,724.66
2022-09-27T00:52:00.774Z,724.90
2022-09-27T00:52:10.775Z,724.93
2022-09-27T00:52:20.776Z,724.79
2022-09-27T00:52:30.773Z,724.85
2022-09-27T00:52:40.776Z,724.94
2022-09-27T00:52:50.777Z,724.86
2022-09-27T00:53:00.778Z,724.85
2022-09-27T00:53:10.776Z,724.87
2022-09-27T00:53:20.775Z,724.92
2022-09-27T00:53:30.780Z,725.05
2022-09-27T00:53:40.779Z,725.08
2022-09-27T00:53:50.784Z,725.01
2022-09-27T00:54:00.779Z,724.89
2022-09-27T00:54:10.784Z,724.96
2022-09-27T00:54:20.786Z,725.00
2022-09-27T00:54:30.781Z,725.12
2022-09-27T00:54:40.783Z,725.02
2022-09-27T00:54:50.783Z,724.90
2022-09-27T00:55:00.786Z,725.00
2022-09-27T00:55:10.787Z,724.88
2022-09-27T00:55:20.785Z,724.75
2022-09-27T00:55:30.789Z,724.90
2022-09-27T00:55:40.779Z,725.01
2022-09-27T00:55:50.792Z,724.99
2022-09-27T00:56:00.790Z,725.04
2022-09-27T00:56:10.788Z,725.14
2022-09-27T00:56:20.787Z,725.10
2022-09-27T00:56:30.791Z,725.17
2022-09-27T00:56:40.792Z,725.11
2022-09-27T00:56:50.791Z,725.15
2022-09-27T00:57:00.797Z,725.08
2022-09-27T00:57:10.793Z,725.13
2022-09-27T00:57:20.795Z,725.11
2022-09-27T00:57:30.798Z,725.21
2022-09-27T00:57:40.795Z,725.10
2022-09-27T00:57:50.796Z,725.06
2022-09-27T00:58:00.799Z,725.16
2022-09-27T00:58:10.797Z,725.17
2022-09-27T00:58:20.801Z,725.25
2022-09-27T00:58:30.808Z,725.34
2022-09-27T00:58:40.801Z,725.38
2022-09-27T00:58:50.805Z,725.40
2022-09-27T00:59:00.801Z,725.32
2022-09-27T00:59:10.871Z,725.32
2022-09-27T00:59:20.813Z,725.42
2022-09-27T00:59:30.801Z,725.42
2022-09-27T00:59:40.800Z,725.34
2022-09-27T00:59:50.831Z,725.34
2022-09-27T01:00:00.806Z,725.38
2022-09-27T01:00:10.809Z,725.32
2022-09-27T01:00:20.812Z,725.27
2022-09-27T01:00:30.808Z,725.29
2022-09-27T01:00:40.806Z,725.29
2022-09-27T01:00:50.795Z,725.32
2022-09-27T01:01:00.855Z,725.35
2022-09-27T01:01:10.868Z,725.27
2022-09-27T01:01:20.867Z,725.14
2022-09-27T01:01:30.902Z,725.13
2022-09-27T01:01:40.863Z,725.23
2022-09-27T01:01:50.847Z,725.24
2022-09-27T01:02:00.809Z,725.22
2022-09-27T01:02:10.854Z,725.16
2022-09-27T01:02:20.899Z,725.04
2022-09-27T01:02:30.859Z,725.13
2022-09-27T01:02:40.865Z,724.99
2022-09-27T01:02:50.946Z,725.04
2022-09-27T01:03:00.886Z,725.12
2022-09-27T01:03:10.840Z,725.08
2022-09-27T01:03:20.819Z,724.98
2022-09-27T01:03:30.817Z,724.86
2022-09-27T01:03:40.817Z,724.92
2022-09-27T01:03:50.819Z,724.95
2022-09-27T01:04:00.817Z,725.04
2022-09-27T01:04:10.818Z,725.11
2022-09-27T01:04:20.820Z,725.05
2022-09-27T01:04:30.817Z,725.09
2022-09-27T01:04:40.820Z,725.04
2022-09-27T01:04:50.821Z,724.99
2022-09-27T01:05:00.821Z,725.15
2022-09-27T01:05:10.821Z,725.09
2022-09-27T01:05:20.828Z,725.14
2022-09-27T01:05:30.823Z,725.26
2022-09-27T01:05:40.830Z,725.20
2022-09-27T01:05:50.827Z,725.29
2022-09-27T01:06:00.828Z,725.35
2022-09-27T01:06:10.826Z,725.37
2022-09-27T01:06:20.818Z,725.32
2022-09-27T01:06:30.840Z,725.44
2022-09-27T01:06:40.853Z,725.58
2022-09-27T01:06:50.863Z,725.45
2022-09-27T01:07:00.833Z,725.45
2022-09-27T01:07:10.834Z,725.35
2022-09-27T01:07:20.832Z,725.30
2022-09-27T01:07:30.820Z,725.35
2022-09-27T01:07:40.842Z,725.38
2022-09-27T01:07:50.836Z,725.53
2022-09-27T01:08:00.959Z,725.44
2022-09-27T01:08:10.837Z,725.51
2022-09-27T01:08:20.838Z,725.55
2022-09-27T01:08:30.847Z,725.55
2022-09-27T01:08:40.843Z,725.56
2022-09-27T01:08:50.844Z,725.52
2022-09-27T01:09:00.842Z,725.35
2022-09-27T01:09:10.951Z,725.40
2022-09-27T01:09:20.842Z,725.48
2022-09-27T01:09:30.842Z,725.62
2022-09-27T01:09:40.856Z,725.65
2022-09-27T01:09:50.847Z,725.66
2022-09-27T01:10:00.848Z,725.56
2022-09-27T01:10:10.848Z,725.60
2022-09-27T01:10:20.849Z,725.69
2022-09-27T01:10:30.850Z,725.74
2022-09-27T01:10:40.853Z,725.63
2022-09-27T01:10:50.837Z,725.66
2022-09-27T01:11:00.851Z,725.84
2022-09-27T01:11:10.850Z,725.75
2022-09-27T01:11:20.851Z,725.69
2022-09-27T01:11:30.853Z,725.85
2022-09-27T01:11:40.872Z,725.85
2022-09-27T01:11:50.856Z,726.06
2022-09-27T01:12:00.853Z,726.04
2022-09-27T01:12:10.858Z,725.97
2022-09-27T01:12:20.858Z,725.87
2022-09-27T01:12:30.859Z,725.90
2022-09-27T01:12:40.859Z,725.98
2022-09-27T01:12:50.859Z,725.96
2022-09-27T01:13:00.860Z,726.28
2022-09-27T01:13:10.859Z,726.23
2022-09-27T01:13:20.862Z,726.18
2022-09-27T01:13:30.863Z,726.24
2022-09-27T01:13:40.865Z,726.40
2022-09-27T01:13:50.864Z,726.40
2022-09-27T01:14:00.876Z,726.73
2022-09-27T01:14:10.869Z,726.87
2022-09-27T01:14:20.867Z,726.73
2022-09-27T01:14:30.867Z,726.87
2022-09-27T01:14:40.869Z,726.66
2022-09-27T01:14:50.879Z,726.83
2022-09-27T01:15:00.875Z,726.66
2022-09-27T01:15:10.874Z,726.91
2022-09-27T01:15:20.871Z,726.84
2022-09-27T01:15:30.949Z,726.74
2022-09-27T01:15:40.941Z,726.72
2022-09-27T01:15:50.952Z,726.67
2022-09-27T01:16:00.955Z,726.61
2022-09-27T01:16:10.921Z,726.56
2022-09-27T01:16:20.970Z,726.59
2022-09-27T01:16:30.877Z,726.42
2022-09-27T01:16:40.904Z,726.75
2022-09-27T01:16:50.859Z,726.83
2022-09-27T01:17:00.874Z,726.95
2022-09-27T01:17:10.878Z,726.92
2022-09-27T01:17:20.862Z,726.83
2022-09-27T01:17:30.875Z,726.65
2022-09-27T01:17:40.878Z,726.76
2022-09-27T01:17:50.878Z,726.85
2022-09-27T01:18:00.879Z,726.79
2022-09-27T01:18:10.882Z,726.61
2022-09-27T01:18:20.878Z,726.51
2022-09-27T01:18:30.885Z,726.74
2022-09-27T01:18:40.879Z,726.72
2022-09-27T01:18:50.883Z,726.69
2022-09-27T01:19:00.886Z,726.61
2022-09-27T01:19:10.968Z,726.71
2022-09-27T01:19:20.883Z,726.71
2022-09-27T01:19:30.888Z,726.39
2022-09-27T01:19:40.886Z,726.61
2022-09-27T01:19:50.887Z,726.70
2022-09-27T01:20:00.887Z,726.67
2022-09-27T01:20:10.891Z,726.65
2022-09-27T01:20:20.889Z,726.80
2022-09-27T01:20:30.891Z,726.69
2022-09-27T01:20:40.893Z,726.86
2022-09-27T01:20:50.893Z,726.83
2022-09-27T01:21:00.888Z,726.75
2022-09-27T01:21:10.896Z,726.72
2022-09-27T01:21:20.896Z,726.90
2022-09-27T01:21:30.892Z,726.76
2022-09-27T01:21:40.891Z,726.64
2022-09-27T01:21:50.896Z,726.59
2022-09-27T01:22:00.898Z,726.57
2022-09-27T01:22:10.893Z,726.41
2022-09-27T01:22:20.896Z,726.37
2022-09-27T01:22:30.896Z,726.51
2022-09-27T01:22:40.897Z,726.41
2022-09-27T01:22:50.896Z,726.51
2022-09-27T01:23:00.898Z,726.60
2022-09-27T01:23:10.896Z,726.75
2022-09-27T01:23:20.895Z,726.83
2022-09-27T01:23:30.895Z,726.80
2022-09-27T01:23:40.896Z,726.67
2022-09-27T01:23:50.899Z,726.67
2022-09-27T01:24:00.900Z,726.78
2022-09-27T01:24:10.898Z,726.77
2022-09-27T01:24:20.903Z,726.86
2022-09-27T01:24:30.900Z,726.76
2022-09-27T01:24:40.905Z,726.72
2022-09-27T01:24:50.902Z,726.76
2022-09-27T01:25:00.903Z,726.91
2022-09-27T01:25:10.909Z,726.92
2022-09-27T01:25:20.902Z,726.78
2022-09-27T01:25:30.903Z,726.77
2022-09-27T01:25:40.904Z,726.84
2022-09-27T01:25:50.910Z,726.80
2022-09-27T01:26:00.906Z,726.90
2022-09-27T01:26:10.909Z,726.85
2022-09-27T01:26:20.910Z,726.78
2022-09-27T01:26:30.908Z,726.72
2022-09-27T01:26:40.911Z,726.89
2022-09-27T01:26:50.917Z,726.81
2022-09-27T01:27:00.912Z,726.74
2022-09-27T01:27:10.911Z,726.79
2022-09-27T01:27:20.900Z,726.84
2022-09-27T01:27:30.916Z,726.64
2022-09-27T01:27:40.918Z,726.51
2022-09-27T01:27:50.923Z,726.70
2022-09-27T01:28:00.922Z,726.72
2022-09-27T01:28:10.917Z,726.57
2022-09-27T01:28:20.907Z,726.65
2022-09-27T01:28:30.906Z,726.59
2022-09-27T01:28:40.921Z,726.58
2022-09-27T01:28:50.926Z,726.55
2022-09-27T01:29:00.922Z,726.62
2022-09-27T01:29:10.905Z,726.75
2022-09-27T01:29:20.929Z,726.74
2022-09-27T01:29:30.924Z,726.72
2022-09-27T01:29:40.925Z,726.82
2022-09-27T01:29:50.923Z,726.83
2022-09-27T01:30:00.927Z,726.88
2022-09-27T01:30:10.924Z,727.05
2022-09-27T01:30:20.929Z,727.05
2022-09-27T01:30:30.925Z,727.00
2022-09-27T01:30:40.968Z,727.11
2022-09-27T01:30:50.948Z,726.98
2022-09-27T01:31:00.967Z,726.90
2022-09-27T01:31:10.962Z,727.34
2022-09-27T01:31:20.979Z,727.81
2022-09-27T01:31:30.980Z,727.56
2022-09-27T01:31:40.928Z,727.49
2022-09-27T01:31:50.934Z,727.63
2022-09-27T01:32:00.942Z,727.53
2022-09-27T01:32:10.933Z,727.63
2022-09-27T01:32:20.933Z,727.78
2022-09-27T01:32:30.937Z,727.91
2022-09-27T01:32:40.932Z,727.83
2022-09-27T01:32:50.935Z,727.89
2022-09-27T01:33:00.943Z,727.73
2022-09-27T01:33:10.961Z,727.65
2022-09-27T01:33:20.940Z,727.63
2022-09-27T01:33:30.934Z,727.92
2022-09-27T01:33:40.936Z,728.07
2022-09-27T01:33:50.944Z,728.12
2022-09-27T01:34:00.935Z,727.91
2022-09-27T01:34:10.940Z,727.95
2022-09-27T01:34:20.938Z,727.87
2022-09-27T01:34:30.938Z,727.92
2022-09-27T01:34:40.941Z,727.93
2022-09-27T01:34:50.937Z,727.98
2022-09-27T01:35:00.938Z,728.07
2022-09-27T01:35:10.941Z,728.07
2022-09-27T01:35:20.940Z,728.13
2022-09-27T01:35:30.942Z,728.14
2022-09-27T01:35:40.944Z,728.21
2022-09-27T01:35:50.944Z,728.19
2022-09-27T01:36:00.944Z,728.29
2022-09-27T01:36:10.947Z,728.08
2022-09-27T01:36:20.948Z,728.14
2022-09-27T01:36:30.933Z,728.21
2022-09-27T01:36:40.949Z,728.20
2022-09-27T01:36:50.986Z,728.24
2022-09-27T01:37:00.957Z,728.33
2022-09-27T01:37:10.954Z,728.19
2022-09-27T01:37:20.954Z,728.19
2022-09-27T01:37:30.957Z,727.84
2022-09-27T01:37:40.963Z,728.19
2022-09-27T01:37:50.940Z,727.95
2022-09-27T01:38:00.957Z,727.92
2022-09-27T01:38:10.960Z,727.98
2022-09-27T01:38:20.962Z,728.08
2022-09-27T01:38:30.968Z,728.12
2022-09-27T01:38:40.965Z,728.02
2022-09-27T01:38:50.959Z,727.86
2022-09-27T01:39:00.957Z,727.74
2022-09-27T01:39:11.022Z,727.67
2022-09-27T01:39:20.948Z,728.08
2022-09-27T01:39:30.961Z,728.04
2022-09-27T01:39:40.963Z,727.89
2022-09-27T01:39:50.968Z,727.77
2022-09-27T01:40:00.965Z,727.81
2022-09-27T01:40:11.040Z,727.93
2022-09-27T01:40:21.040Z,727.97
2022-09-27T01:40:31.014Z,727.90
2022-09-27T01:40:40.984Z,727.81
2022-09-27T01:40:51.013Z,727.84
2022-09-27T01:41:00.992Z,727.87
2022-09-27T01:41:10.968Z,727.96
2022-09-27T01:41:20.976Z,727.95
2022-09-27T01:41:30.952Z,727.98
2022-09-27T01:41:40.973Z,728.01
2022-09-27T01:41:50.976Z,727.93
2022-09-27T01:42:00.976Z,727.80
2022-09-27T01:42:12.944Z,727.64
2022-09-27T01:42:22.417Z,727.50
2022-09-27T01:42:30.973Z,727.61
2022-09-27T01:42:40.975Z,727.66
2022-09-27T01:42:50.981Z,727.88
2022-09-27T01:43:00.975Z,727.86
2022-09-27T01:43:10.981Z,727.68
2022-09-27T01:43:20.982Z,727.56
2022-09-27T01:43:30.983Z,727.49
2022-09-27T01:43:40.980Z,727.56
2022-09-27T01:43:50.983Z,727.76
2022-09-27T01:44:00.980Z,727.85
2022-09-27T01:44:10.984Z,727.77
2022-09-27T01:44:20.992Z,727.79
2022-09-27T01:44:30.985Z,727.74
2022-09-27T01:44:40.986Z,727.63
2022-09-27T01:44:50.992Z,727.65
2022-09-27T01:45:00.986Z,727.65
2022-09-27T01:45:10.986Z,727.77
2022-09-27T01:45:21.000Z,727.73
2022-09-27T01:45:30.988Z,727.82
2022-09-27T01:45:40.986Z,727.89
2022-09-27T01:45:51.018Z,727.78
2022-09-27T01:46:01.012Z,727.66
2022-09-27T01:46:11.058Z,727.47
2022-09-27T01:46:21.053Z,727.37
2022-09-27T01:46:31.016Z,727.52
2022-09-27T01:46:41.107Z,727.62
2022-09-27T01:46:50.991Z,727.77
2022-09-27T01:47:01.001Z,727.95
2022-09-27T01:47:10.977Z,727.89
2022-09-27T01:47:20.993Z,727.71
2022-09-27T01:47:31.000Z,727.72
2022-09-27T01:47:40.995Z,727.64
2022-09-27T01:47:50.999Z,727.56
2022-09-27T01:48:01.004Z,727.67
2022-09-27T01:48:10.981Z,727.72
2022-09-27T01:48:20.996Z,727.66
2022-09-27T01:48:31.006Z,727.68
2022-09-27T01:48:40.996Z,727.57
2022-09-27T01:48:50.997Z,727.52
2022-09-27T01:49:01.001Z,727.71
2022-09-27T01:49:11.056Z,727.96
2022-09-27T01:49:20.998Z,727.92
2022-09-27T01:49:30.998Z,728.01
2022-09-27T01:49:41.001Z,727.83
2022-09-27T01:49:51.001Z,727.81
2022-09-27T01:50:01.002Z,727.84
2022-09-27T01:50:11.003Z,728.05
2022-09-27T01:50:21.002Z,728.00
2022-09-27T01:50:31.001Z,728.13
2022-09-27T01:50:41.005Z,728.12
2022-09-27T01:50:51.006Z,727.96
2022-09-27T01:51:01.008Z,727.96
2022-09-27T01:51:11.008Z,728.07
2022-09-27T01:51:21.009Z,728.14
2022-09-27T01:51:31.011Z,727.90
2022-09-27T01:51:41.011Z,727.97
2022-09-27T01:51:51.042Z,728.30
2022-09-27T01:52:01.008Z,728.30
2022-09-27T01:52:11.012Z,728.31
2022-09-27T01:52:21.011Z,728.17
2022-09-27T01:52:31.011Z,727.91
2022-09-27T01:52:41.017Z,727.88
2022-09-27T01:52:51.013Z,728.17
2022-09-27T01:53:01.014Z,728.47
2022-09-27T01:53:11.016Z,728.40
2022-09-27T01:53:21.015Z,728.43
2022-09-27T01:53:31.000Z,728.30
2022-09-27T01:53:41.016Z,728.14
2022-09-27T01:53:51.016Z,728.28
2022-09-27T01:54:01.019Z,728.35
2022-09-27T01:54:11.018Z,728.50
2022-09-27T01:54:21.020Z,728.45
2022-09-27T01:54:31.021Z,728.41
2022-09-27T01:54:41.007Z,728.35
2022-09-27T01:54:51.022Z,728.40
2022-09-27T01:55:01.024Z,728.40
2022-09-27T01:55:11.023Z,728.43
2022-09-27T01:55:21.025Z,728.44
2022-09-27T01:55:31.027Z,728.49
2022-09-27T01:55:41.025Z,728.46
2022-09-27T01:55:51.026Z,728.39
2022-09-27T01:56:01.027Z,728.32
2022-09-27T01:56:11.028Z,728.26
2022-09-27T01:56:21.033Z,728.42
2022-09-27T01:56:31.028Z,728.45
2022-09-27T01:56:41.030Z,728.37
2022-09-27T01:56:51.033Z,728.23
2022-09-27T01:57:01.032Z,728.36
2022-09-27T01:57:11.035Z,728.39
2022-09-27T01:57:21.030Z,728.51
2022-09-27T01:57:31.032Z,728.45
2022-09-27T01:57:41.034Z,728.50
2022-09-27T01:57:51.039Z,728.73
2022-09-27T01:58:01.033Z,728.93
2022-09-27T01:58:11.033Z,728.70
2022-09-27T01:58:21.036Z,728.64
2022-09-27T01:58:31.038Z,728.62
2022-09-27T01:58:41.034Z,728.62
2022-09-27T01:58:51.037Z,728.61
2022-09-27T01:59:01.039Z,728.71
2022-09-27T01:59:11.119Z,728.63
2022-09-27T01:59:21.042Z,728.56
2022-09-27T01:59:31.039Z,728.60
2022-09-27T01:59:41.038Z,728.61
2022-09-27T01:59:51.038Z,728.74
2022-09-27T02:00:01.042Z,728.66
2022-09-27T02:00:11.121Z,728.68
2022-09-27T02:00:21.038Z,728.65
2022-09-27T02:00:31.043Z,728.59
2022-09-27T02:00:41.044Z,728.46
2022-09-27T02:00:51.027Z,728.47
2022-09-27T02:01:01.095Z,728.50
2022-09-27T02:01:11.099Z,728.60
2022-09-27T02:01:21.094Z,728.64
2022-09-27T02:01:31.077Z,728.66
2022-09-27T02:01:41.106Z,728.65
2022-09-27T02:01:51.108Z,728.66
2022-09-27T02:02:01.044Z,728.54
2022-09-27T02:02:11.059Z,728.42
2022-09-27T02:02:21.061Z,728.56
2022-09-27T02:02:31.087Z,728.57
2022-09-27T02:02:41.108Z,728.47
2022-09-27T02:02:51.141Z,728.52
2022-09-27T02:03:01.109Z,728.48
2022-09-27T02:03:11.056Z,728.43
2022-09-27T02:03:21.051Z,728.37
2022-09-27T02:03:31.052Z,728.51
2022-09-27T02:03:41.063Z,728.57
2022-09-27T02:03:51.056Z,728.51
2022-09-27T02:04:01.055Z,728.52
2022-09-27T02:04:11.055Z,728.43
2022-09-27T02:04:21.055Z,728.53
2022-09-27T02:04:31.056Z,728.55
2022-09-27T02:04:41.061Z,728.47